createdAt,value
2018-01-18T00:00:01.390Z,998.16
2018-01-18T00:00:27.491Z,998.24
2018-01-18T00:00:53.597Z,998.14
2018-01-18T00:01:19.706Z,998.2
2018-01-18T00:01:45.808Z,998.18
2018-01-18T00:02:11.927Z,998.15
2018-01-18T00:02:38.036Z,998.17
2018-01-18T00:03:04.135Z,998.19
2018-01-18T00:03:30.244Z,998.18
2018-01-18T00:03:56.362Z,998.38
2018-01-18T00:04:22.467Z,998.23
2018-01-18T00:04:48.605Z,998.17
2018-01-18T00:05:14.707Z,998.17
2018-01-18T00:05:40.807Z,998.16
2018-01-18T00:06:06.918Z,998.16
2018-01-18T00:06:33.039Z,998.17
2018-01-18T00:06:59.139Z,998.23
2018-01-18T00:07:25.248Z,998.23
2018-01-18T00:07:51.348Z,998.2
2018-01-18T00:08:17.466Z,998.23
2018-01-18T00:08:43.569Z,998.19
2018-01-18T00:09:09.667Z,998.19
2018-01-18T00:09:35.797Z,998.15
2018-01-18T00:10:01.897Z,998.15
2018-01-18T00:10:28.001Z,998.16
2018-01-18T00:10:54.109Z,998.08
2018-01-18T00:11:20.221Z,998.09
2018-01-18T00:11:46.321Z,998.16
2018-01-18T00:12:12.482Z,998.09
2018-01-18T00:12:38.619Z,998.2
2018-01-18T00:13:04.775Z,998.18
2018-01-18T00:13:30.927Z,998.1
2018-01-18T00:13:57.051Z,998.05
2018-01-18T00:14:23.149Z,998.1
2018-01-18T00:14:49.259Z,998.06
2018-01-18T00:15:15.363Z,998.11
2018-01-18T00:15:41.472Z,998.07
2018-01-18T00:16:07.574Z,998.13
2018-01-18T00:16:33.701Z,998.09
2018-01-18T00:17:00.125Z,998.11
2018-01-18T00:17:26.254Z,998.12
2018-01-18T00:17:52.385Z,998.08
2018-01-18T00:18:18.487Z,998.02
2018-01-18T00:18:44.611Z,998.03
2018-01-18T00:19:10.707Z,998.04
2018-01-18T00:19:36.818Z,998.02
2018-01-18T00:20:02.934Z,997.94
2018-01-18T00:20:29.040Z,997.96
2018-01-18T00:20:55.161Z,997.95
2018-01-18T00:21:21.505Z,997.89
2018-01-18T00:21:47.607Z,997.94
2018-01-18T00:22:13.725Z,997.94
2018-01-18T00:22:39.834Z,997.94
2018-01-18T00:23:05.934Z,997.92
2018-01-18T00:23:32.044Z,997.91
2018-01-18T00:23:58.151Z,997.92
2018-01-18T00:24:24.252Z,997.87
2018-01-18T00:24:50.355Z,997.88
2018-01-18T00:25:16.462Z,997.84
2018-01-18T00:25:42.573Z,997.82
2018-01-18T00:26:08.692Z,997.85
2018-01-18T00:26:34.795Z,997.87
2018-01-18T00:27:00.897Z,997.82
2018-01-18T00:27:27.000Z,997.89
2018-01-18T00:27:53.127Z,997.78
2018-01-18T00:28:19.228Z,997.84
2018-01-18T00:28:45.332Z,997.86
2018-01-18T00:29:11.438Z,997.81
2018-01-18T00:29:37.541Z,997.82
2018-01-18T00:30:03.648Z,997.82
2018-01-18T00:30:29.748Z,997.82
2018-01-18T00:30:55.852Z,997.79
2018-01-18T00:31:21.980Z,997.83
2018-01-18T00:31:48.089Z,997.8
2018-01-18T00:32:14.184Z,997.79
2018-01-18T00:32:40.292Z,997.89
2018-01-18T00:33:06.388Z,997.78
2018-01-18T00:33:32.490Z,997.73
2018-01-18T00:33:58.598Z,997.76
2018-01-18T00:34:24.703Z,997.82
2018-01-18T00:34:50.810Z,997.8
2018-01-18T00:35:16.913Z,997.73
2018-01-18T00:35:43.016Z,997.78
2018-01-18T00:36:09.116Z,997.67
2018-01-18T00:36:35.223Z,997.7
2018-01-18T00:37:01.327Z,997.63
2018-01-18T00:37:27.428Z,997.66
2018-01-18T00:37:53.536Z,997.58
2018-01-18T00:38:19.639Z,997.69
2018-01-18T00:38:45.747Z,997.61
2018-01-18T00:39:11.850Z,997.62
2018-01-18T00:39:37.960Z,997.6
2018-01-18T00:40:04.061Z,997.64
2018-01-18T00:40:30.162Z,997.66
2018-01-18T00:40:56.268Z,997.56
2018-01-18T00:41:22.837Z,997.62
2018-01-18T00:41:49.043Z,997.58
2018-01-18T00:42:15.151Z,997.55
2018-01-18T00:42:41.256Z,997.58
2018-01-18T00:43:07.382Z,997.59
2018-01-18T00:43:33.483Z,997.54
2018-01-18T00:43:59.581Z,997.52
2018-01-18T00:44:25.708Z,997.49
2018-01-18T00:44:51.813Z,997.49
2018-01-18T00:45:17.918Z,997.43
2018-01-18T00:45:44.020Z,997.5
2018-01-18T00:46:10.128Z,997.43
2018-01-18T00:46:36.249Z,997.41
2018-01-18T00:47:02.361Z,997.37
2018-01-18T00:47:28.452Z,997.43
2018-01-18T00:47:54.648Z,997.39
2018-01-18T00:48:20.770Z,997.36
2018-01-18T00:48:46.871Z,997.43
2018-01-18T00:49:12.974Z,997.33
2018-01-18T00:49:39.195Z,997.43
2018-01-18T00:50:05.275Z,997.38
2018-01-18T00:50:31.373Z,997.3
2018-01-18T00:50:57.476Z,997.32
2018-01-18T00:51:23.583Z,997.32
2018-01-18T00:51:49.690Z,997.34
2018-01-18T00:52:15.818Z,997.3
2018-01-18T00:52:41.925Z,997.31
2018-01-18T00:53:08.029Z,997.37
2018-01-18T00:53:34.137Z,997.3
2018-01-18T00:54:00.247Z,997.27
2018-01-18T00:54:26.344Z,997.26
2018-01-18T00:54:52.475Z,997.21
2018-01-18T00:55:18.589Z,997.17
2018-01-18T00:55:44.692Z,997.23
2018-01-18T00:56:10.835Z,997.21
2018-01-18T00:56:36.894Z,997.15
2018-01-18T00:57:03.002Z,997.27
2018-01-18T00:57:29.108Z,997.28
2018-01-18T00:57:55.215Z,997.23
2018-01-18T00:58:21.317Z,997.27
2018-01-18T00:58:47.451Z,997.26
2018-01-18T00:59:13.552Z,997.25
2018-01-18T00:59:39.687Z,997.24
2018-01-18T01:00:05.795Z,997.21
2018-01-18T01:00:31.896Z,997.17
2018-01-18T01:00:58.002Z,997.21
2018-01-18T01:01:24.140Z,997.14
2018-01-18T01:01:50.243Z,997.13
2018-01-18T01:02:16.346Z,997.15
2018-01-18T01:02:42.448Z,997.15
2018-01-18T01:03:08.549Z,997.08
2018-01-18T01:03:34.653Z,997.18
2018-01-18T01:04:00.764Z,997.11
2018-01-18T01:04:26.865Z,997.11
2018-01-18T01:04:52.997Z,997.13
2018-01-18T01:05:19.122Z,997.02
2018-01-18T01:05:45.249Z,997.07
2018-01-18T01:06:11.346Z,997.14
2018-01-18T01:06:37.454Z,997.09
2018-01-18T01:07:03.564Z,997.05
2018-01-18T01:07:29.714Z,997.01
2018-01-18T01:07:55.823Z,997.01
2018-01-18T01:08:21.912Z,996.99
2018-01-18T01:08:48.016Z,997.03
2018-01-18T01:09:14.120Z,997.02
2018-01-18T01:09:40.214Z,996.97
2018-01-18T01:10:06.319Z,996.98
2018-01-18T01:10:32.420Z,996.95
2018-01-18T01:10:58.836Z,996.95
2018-01-18T01:11:24.857Z,996.93
2018-01-18T01:11:50.959Z,996.94
2018-01-18T01:12:17.068Z,996.95
2018-01-18T01:12:43.171Z,996.97
2018-01-18T01:13:09.269Z,997
2018-01-18T01:13:35.364Z,996.95
2018-01-18T01:14:01.468Z,996.98
2018-01-18T01:14:27.570Z,996.99
2018-01-18T01:14:53.688Z,996.96
2018-01-18T01:15:19.787Z,996.98
2018-01-18T01:15:45.886Z,996.98
2018-01-18T01:16:11.985Z,996.91
2018-01-18T01:16:38.121Z,996.88
2018-01-18T01:17:04.230Z,996.88
2018-01-18T01:17:30.327Z,996.96
2018-01-18T01:17:56.467Z,996.85
2018-01-18T01:18:22.564Z,996.77
2018-01-18T01:18:48.665Z,996.84
2018-01-18T01:19:14.772Z,996.78
2018-01-18T01:19:40.872Z,996.73
2018-01-18T01:20:06.969Z,996.72
2018-01-18T01:20:33.073Z,996.72
2018-01-18T01:20:59.165Z,996.69
2018-01-18T01:21:25.260Z,996.69
2018-01-18T01:21:51.365Z,996.77
2018-01-18T01:22:17.501Z,996.7
2018-01-18T01:22:43.610Z,996.65
2018-01-18T01:23:09.733Z,996.72
2018-01-18T01:23:35.891Z,996.65
2018-01-18T01:24:01.989Z,996.67
2018-01-18T01:24:28.111Z,996.69
2018-01-18T01:24:54.215Z,996.64
2018-01-18T01:25:20.313Z,996.73
2018-01-18T01:25:46.416Z,996.69
2018-01-18T01:26:12.517Z,996.68
2018-01-18T01:26:38.649Z,996.68
2018-01-18T01:27:04.776Z,996.68
2018-01-18T01:27:30.909Z,996.69
2018-01-18T01:27:57.294Z,996.65
2018-01-18T01:28:23.394Z,996.65
2018-01-18T01:28:49.500Z,996.6
2018-01-18T01:29:15.602Z,996.63
2018-01-18T01:29:41.701Z,996.57
2018-01-18T01:30:07.804Z,996.6
2018-01-18T01:30:33.907Z,996.52
2018-01-18T01:31:00.005Z,996.58
2018-01-18T01:31:26.145Z,996.55
2018-01-18T01:31:52.271Z,996.59
2018-01-18T01:32:18.386Z,996.51
2018-01-18T01:32:44.490Z,996.57
2018-01-18T01:33:10.591Z,996.6
2018-01-18T01:33:36.690Z,996.54
2018-01-18T01:34:02.790Z,996.44
2018-01-18T01:34:28.914Z,996.51
2018-01-18T01:34:55.018Z,996.46
2018-01-18T01:35:21.119Z,996.5
2018-01-18T01:35:47.263Z,996.46
2018-01-18T01:36:13.364Z,996.49
2018-01-18T01:36:39.485Z,996.43
2018-01-18T01:37:05.578Z,996.36
2018-01-18T01:37:31.677Z,996.32
2018-01-18T01:37:57.783Z,996.33
2018-01-18T01:38:23.894Z,996.31
2018-01-18T01:38:50.015Z,996.23
2018-01-18T01:39:16.114Z,996.3
2018-01-18T01:39:42.303Z,996.23
2018-01-18T01:40:08.408Z,996.19
2018-01-18T01:40:34.507Z,996.17
2018-01-18T01:41:00.609Z,996.13
2018-01-18T01:41:26.709Z,996.16
2018-01-18T01:41:52.851Z,996.21
2018-01-18T01:42:18.933Z,996.15
2018-01-18T01:42:45.083Z,996.21
2018-01-18T01:43:11.184Z,996.17
2018-01-18T01:43:37.278Z,996.18
2018-01-18T01:44:03.386Z,996.16
2018-01-18T01:44:29.483Z,996.13
2018-01-18T01:44:55.606Z,996.15
2018-01-18T01:45:21.706Z,996.13
2018-01-18T01:45:47.814Z,996.12
2018-01-18T01:46:13.909Z,996.19
2018-01-18T01:46:40.010Z,996.2
2018-01-18T01:47:06.117Z,996.09
2018-01-18T01:47:32.224Z,996.03
2018-01-18T01:47:58.321Z,996.07
2018-01-18T01:48:24.461Z,996.06
2018-01-18T01:48:50.651Z,996.08
2018-01-18T01:49:16.739Z,996.09
2018-01-18T01:49:42.840Z,996.06
2018-01-18T01:50:08.960Z,995.99
2018-01-18T01:50:35.082Z,996.06
2018-01-18T01:51:01.183Z,996.03
2018-01-18T01:51:27.279Z,996.04
2018-01-18T01:51:53.386Z,996.06
2018-01-18T01:52:19.500Z,996.07
2018-01-18T01:52:45.602Z,996.16
2018-01-18T01:53:11.708Z,996.11
2018-01-18T01:53:37.811Z,996.12
2018-01-18T01:54:03.911Z,996.12
2018-01-18T01:54:30.012Z,996.1
2018-01-18T01:54:56.116Z,996.13
2018-01-18T01:55:22.222Z,996.08
2018-01-18T01:55:48.323Z,996.05
2018-01-18T01:56:14.420Z,996.05
2018-01-18T01:56:40.531Z,996.05
2018-01-18T01:57:06.632Z,996.02
2018-01-18T01:57:32.733Z,996.06
2018-01-18T01:57:58.828Z,996.01
2018-01-18T01:58:24.952Z,995.99
2018-01-18T01:58:51.073Z,995.95
2018-01-18T01:59:17.179Z,995.93
2018-01-18T01:59:43.290Z,995.92
2018-01-18T02:00:09.417Z,995.9
2018-01-18T02:00:35.513Z,995.85
2018-01-18T02:01:01.622Z,995.9
2018-01-18T02:01:27.715Z,995.84
2018-01-18T02:01:53.835Z,995.8
2018-01-18T02:02:19.941Z,995.84
2018-01-18T02:02:46.042Z,995.75
2018-01-18T02:03:12.159Z,995.73
2018-01-18T02:03:38.255Z,995.7
2018-01-18T02:04:04.354Z,995.71
2018-01-18T02:04:30.705Z,995.68
2018-01-18T02:04:56.803Z,995.63
2018-01-18T02:05:23.463Z,995.62
2018-01-18T02:05:49.565Z,995.64
2018-01-18T02:06:15.702Z,995.62
2018-01-18T02:06:41.797Z,995.55
2018-01-18T02:07:07.902Z,995.56
2018-01-18T02:07:33.998Z,995.58
2018-01-18T02:08:00.245Z,995.63
2018-01-18T02:08:26.272Z,995.63
2018-01-18T02:08:52.411Z,995.61
2018-01-18T02:09:18.479Z,995.57
2018-01-18T02:09:44.606Z,995.59
2018-01-18T02:10:10.709Z,995.52
2018-01-18T02:10:36.807Z,995.57
2018-01-18T02:11:02.905Z,995.61
2018-01-18T02:11:29.006Z,995.53
2018-01-18T02:11:55.112Z,995.54
2018-01-18T02:12:21.213Z,995.5
2018-01-18T02:12:47.311Z,995.55
2018-01-18T02:13:13.417Z,995.52
2018-01-18T02:13:39.513Z,995.51
2018-01-18T02:14:05.616Z,995.4
2018-01-18T02:14:31.719Z,995.43
2018-01-18T02:14:57.816Z,995.49
2018-01-18T02:15:23.923Z,995.36
2018-01-18T02:15:50.063Z,995.43
2018-01-18T02:16:16.158Z,995.37
2018-01-18T02:16:42.286Z,995.35
2018-01-18T02:17:08.383Z,995.35
2018-01-18T02:17:34.519Z,995.35
2018-01-18T02:18:00.597Z,995.35
2018-01-18T02:18:26.703Z,995.35
2018-01-18T02:18:52.798Z,995.33
2018-01-18T02:19:18.904Z,995.43
2018-01-18T02:19:45.010Z,995.35
2018-01-18T02:20:11.108Z,995.24
2018-01-18T02:20:37.230Z,995.22
2018-01-18T02:21:03.328Z,995.17
2018-01-18T02:21:29.424Z,995.24
2018-01-18T02:21:55.526Z,995.24
2018-01-18T02:22:21.631Z,995.19
2018-01-18T02:22:47.730Z,995.17
2018-01-18T02:23:13.836Z,995.2
2018-01-18T02:23:39.935Z,995.2
2018-01-18T02:24:06.036Z,995.1
2018-01-18T02:24:32.135Z,995.19
2018-01-18T02:24:58.438Z,995.03
2018-01-18T02:25:24.544Z,995.09
2018-01-18T02:25:50.672Z,995.12
2018-01-18T02:26:16.808Z,995.07
2018-01-18T02:26:42.873Z,995.05
2018-01-18T02:27:08.997Z,995.01
2018-01-18T02:27:35.118Z,994.98
2018-01-18T02:28:01.214Z,995.02
2018-01-18T02:28:27.574Z,995.01
2018-01-18T02:28:53.627Z,995
2018-01-18T02:29:19.735Z,994.95
2018-01-18T02:29:45.836Z,994.97
2018-01-18T02:30:11.933Z,994.83
2018-01-18T02:30:38.045Z,994.85
2018-01-18T02:31:04.142Z,994.84
2018-01-18T02:31:30.241Z,994.88
2018-01-18T02:31:56.349Z,994.78
2018-01-18T02:32:22.448Z,994.71
2018-01-18T02:32:48.550Z,994.69
2018-01-18T02:33:14.658Z,994.69
2018-01-18T02:33:40.783Z,994.77
2018-01-18T02:34:06.885Z,994.68
2018-01-18T02:34:32.984Z,994.73
2018-01-18T02:34:59.088Z,994.68
2018-01-18T02:35:25.183Z,994.66
2018-01-18T02:35:51.291Z,994.72
2018-01-18T02:36:17.387Z,994.71
2018-01-18T02:36:43.484Z,994.7
2018-01-18T02:37:09.589Z,994.63
2018-01-18T02:37:35.687Z,994.56
2018-01-18T02:38:01.787Z,994.63
2018-01-18T02:38:27.892Z,994.66
2018-01-18T02:38:53.992Z,994.63
2018-01-18T02:39:20.106Z,994.49
2018-01-18T02:39:46.209Z,994.53
2018-01-18T02:40:12.318Z,994.52
2018-01-18T02:40:38.420Z,994.56
2018-01-18T02:41:04.522Z,994.44
2018-01-18T02:41:30.675Z,994.51
2018-01-18T02:41:56.765Z,994.51
2018-01-18T02:42:22.906Z,994.44
2018-01-18T02:42:49.007Z,994.39
2018-01-18T02:43:15.111Z,994.42
2018-01-18T02:43:41.209Z,994.41
2018-01-18T02:44:07.313Z,994.38
2018-01-18T02:44:33.411Z,994.38
2018-01-18T02:44:59.531Z,994.34
2018-01-18T02:45:25.629Z,994.36
2018-01-18T02:45:51.737Z,994.31
2018-01-18T02:46:17.835Z,994.33
2018-01-18T02:46:43.936Z,994.27
2018-01-18T02:47:10.036Z,994.23
2018-01-18T02:47:36.132Z,994.33
2018-01-18T02:48:02.273Z,994.24
2018-01-18T02:48:28.404Z,994.18
2018-01-18T02:48:54.731Z,994.16
2018-01-18T02:49:20.851Z,994.21
2018-01-18T02:49:46.974Z,994.2
2018-01-18T02:50:13.080Z,994.15
2018-01-18T02:50:39.179Z,994.12
2018-01-18T02:51:05.295Z,994.1
2018-01-18T02:51:31.426Z,994.2
2018-01-18T02:51:57.539Z,994.14
2018-01-18T02:52:23.660Z,994.12
2018-01-18T02:52:49.764Z,994.12
2018-01-18T02:53:15.888Z,994.08
2018-01-18T02:53:41.992Z,994.03
2018-01-18T02:54:08.093Z,994.11
2018-01-18T02:54:34.192Z,993.98
2018-01-18T02:55:00.297Z,994.01
2018-01-18T02:55:26.414Z,994.03
2018-01-18T02:55:52.515Z,994.07
2018-01-18T02:56:18.618Z,994.1
2018-01-18T02:56:44.713Z,994.01
2018-01-18T02:57:10.816Z,994.01
2018-01-18T02:57:36.915Z,993.92
2018-01-18T02:58:03.021Z,993.97
2018-01-18T02:58:29.117Z,994.02
2018-01-18T02:58:55.217Z,993.98
2018-01-18T02:59:21.365Z,993.99
2018-01-18T02:59:47.461Z,993.98
2018-01-18T03:00:13.568Z,993.99
2018-01-18T03:00:39.666Z,994.02
2018-01-18T03:01:05.789Z,993.98
2018-01-18T03:01:31.894Z,993.99
2018-01-18T03:01:57.995Z,993.94
2018-01-18T03:02:24.094Z,993.94
2018-01-18T03:02:50.200Z,993.94
2018-01-18T03:03:16.298Z,993.93
2018-01-18T03:03:42.402Z,993.94
2018-01-18T03:04:08.506Z,994.02
2018-01-18T03:04:34.608Z,994.09
2018-01-18T03:05:00.713Z,994.04
2018-01-18T03:05:26.814Z,994.06
2018-01-18T03:05:52.916Z,993.97
2018-01-18T03:06:19.014Z,994
2018-01-18T03:06:45.117Z,994.02
2018-01-18T03:07:11.220Z,994.06
2018-01-18T03:07:37.344Z,994.04
2018-01-18T03:08:03.443Z,994.03
2018-01-18T03:08:29.536Z,994.14
2018-01-18T03:08:55.638Z,993.99
2018-01-18T03:09:21.760Z,994
2018-01-18T03:09:47.862Z,994.04
2018-01-18T03:10:13.957Z,993.94
2018-01-18T03:10:40.061Z,993.83
2018-01-18T03:11:06.160Z,993.73
2018-01-18T03:11:32.264Z,993.8
2018-01-18T03:11:58.364Z,993.76
2018-01-18T03:12:24.472Z,993.78
2018-01-18T03:12:50.579Z,993.66
2018-01-18T03:13:16.676Z,993.68
2018-01-18T03:13:42.777Z,993.82
2018-01-18T03:14:08.896Z,993.7
2018-01-18T03:14:34.995Z,993.72
2018-01-18T03:15:01.095Z,993.66
2018-01-18T03:15:27.198Z,993.79
2018-01-18T03:15:53.300Z,993.72
2018-01-18T03:16:19.395Z,993.85
2018-01-18T03:16:45.498Z,993.7
2018-01-18T03:17:11.602Z,993.66
2018-01-18T03:17:37.700Z,993.62
2018-01-18T03:18:03.805Z,993.7
2018-01-18T03:18:29.906Z,993.62
2018-01-18T03:18:56.009Z,993.6
2018-01-18T03:19:22.108Z,993.66
2018-01-18T03:19:48.209Z,993.52
2018-01-18T03:20:14.309Z,993.46
2018-01-18T03:20:40.414Z,993.49
2018-01-18T03:21:06.510Z,993.46
2018-01-18T03:21:32.614Z,993.43
2018-01-18T03:21:58.712Z,993.33
2018-01-18T03:22:24.810Z,993.34
2018-01-18T03:22:50.963Z,993.37
2018-01-18T03:23:17.030Z,993.26
2018-01-18T03:23:43.152Z,993.23
2018-01-18T03:24:09.249Z,993.29
2018-01-18T03:24:35.354Z,993.26
2018-01-18T03:25:01.457Z,993.14
2018-01-18T03:25:27.557Z,993.11
2018-01-18T03:25:53.658Z,993.12
2018-01-18T03:26:19.755Z,993.12
2018-01-18T03:26:45.854Z,993.06
2018-01-18T03:27:11.961Z,993.07
2018-01-18T03:27:38.062Z,992.9
2018-01-18T03:28:04.167Z,992.99
2018-01-18T03:28:30.269Z,992.95
2018-01-18T03:28:56.367Z,992.99
2018-01-18T03:29:22.468Z,993.05
2018-01-18T03:29:48.571Z,992.89
2018-01-18T03:30:14.670Z,992.91
2018-01-18T03:30:40.772Z,992.87
2018-01-18T03:31:06.874Z,992.87
2018-01-18T03:31:32.975Z,992.78
2018-01-18T03:31:59.079Z,992.85
2018-01-18T03:32:25.186Z,992.85
2018-01-18T03:32:51.292Z,992.79
2018-01-18T03:33:17.389Z,992.76
2018-01-18T03:33:43.484Z,992.76
2018-01-18T03:34:09.589Z,992.71
2018-01-18T03:34:35.689Z,992.78
2018-01-18T03:35:01.794Z,992.74
2018-01-18T03:35:27.891Z,992.61
2018-01-18T03:35:53.996Z,992.58
2018-01-18T03:36:20.115Z,992.67
2018-01-18T03:36:46.214Z,992.67
2018-01-18T03:37:12.317Z,992.57
2018-01-18T03:37:38.420Z,992.65
2018-01-18T03:38:04.519Z,992.6
2018-01-18T03:38:30.624Z,992.58
2018-01-18T03:38:56.723Z,992.63
2018-01-18T03:39:22.821Z,992.53
2018-01-18T03:39:48.926Z,992.51
2018-01-18T03:40:15.022Z,992.56
2018-01-18T03:40:41.128Z,992.54
2018-01-18T03:41:07.226Z,992.55
2018-01-18T03:41:33.330Z,992.52
2018-01-18T03:41:59.432Z,992.49
2018-01-18T03:42:25.528Z,992.42
2018-01-18T03:42:51.633Z,992.54
2018-01-18T03:43:17.730Z,992.43
2018-01-18T03:43:43.834Z,992.38
2018-01-18T03:44:09.936Z,992.34
2018-01-18T03:44:36.041Z,992.4
2018-01-18T03:45:02.152Z,992.37
2018-01-18T03:45:28.256Z,992.36
2018-01-18T03:45:54.361Z,992.33
2018-01-18T03:46:20.473Z,992.32
2018-01-18T03:46:46.579Z,992.32
2018-01-18T03:47:12.694Z,992.4
2018-01-18T03:47:38.790Z,992.28
2018-01-18T03:48:04.895Z,992.29
2018-01-18T03:48:30.999Z,992.27
2018-01-18T03:48:57.095Z,992.25
2018-01-18T03:49:23.195Z,992.21
2018-01-18T03:49:49.301Z,992.22
2018-01-18T03:50:15.415Z,992.16
2018-01-18T03:50:41.523Z,992.15
2018-01-18T03:51:07.641Z,992.11
2018-01-18T03:51:33.737Z,992.3
2018-01-18T03:51:59.843Z,992.06
2018-01-18T03:52:25.951Z,992
2018-01-18T03:52:52.055Z,991.96
2018-01-18T03:53:18.148Z,991.93
2018-01-18T03:53:44.248Z,991.85
2018-01-18T03:54:10.353Z,991.91
2018-01-18T03:54:36.472Z,991.97
2018-01-18T03:55:02.574Z,991.88
2018-01-18T03:55:28.669Z,991.85
2018-01-18T03:55:54.776Z,991.85
2018-01-18T03:56:20.874Z,991.91
2018-01-18T03:56:46.974Z,991.84
2018-01-18T03:57:13.081Z,991.82
2018-01-18T03:57:39.186Z,991.83
2018-01-18T03:58:05.285Z,991.92
2018-01-18T03:58:31.390Z,991.72
2018-01-18T03:58:57.487Z,991.76
2018-01-18T03:59:23.588Z,991.73
2018-01-18T03:59:49.699Z,991.94
2018-01-18T04:00:15.796Z,991.83
2018-01-18T04:00:41.915Z,991.94
2018-01-18T04:01:08.026Z,991.7
2018-01-18T04:01:34.127Z,991.55
2018-01-18T04:02:00.227Z,991.51
2018-01-18T04:02:26.336Z,991.5
2018-01-18T04:02:52.431Z,991.46
2018-01-18T04:03:18.531Z,991.4
2018-01-18T04:03:44.635Z,991.41
2018-01-18T04:04:10.734Z,991.3
2018-01-18T04:04:36.839Z,991.32
2018-01-18T04:05:02.941Z,991.29
2018-01-18T04:05:29.038Z,991.27
2018-01-18T04:05:55.146Z,991.19
2018-01-18T04:06:21.242Z,991.22
2018-01-18T04:06:47.343Z,991.21
2018-01-18T04:07:13.447Z,991.15
2018-01-18T04:07:39.544Z,991.12
2018-01-18T04:08:05.650Z,991.2
2018-01-18T04:08:31.760Z,991.16
2018-01-18T04:08:57.866Z,991.16
2018-01-18T04:09:23.967Z,991.08
2018-01-18T04:09:50.069Z,991.08
2018-01-18T04:10:16.175Z,991.05
2018-01-18T04:10:42.273Z,990.98
2018-01-18T04:11:08.376Z,991.01
2018-01-18T04:11:34.475Z,990.98
2018-01-18T04:12:00.582Z,990.91
2018-01-18T04:12:26.677Z,991
2018-01-18T04:12:52.776Z,990.82
2018-01-18T04:13:18.883Z,990.82
2018-01-18T04:13:44.987Z,990.85
2018-01-18T04:14:11.104Z,990.75
2018-01-18T04:14:37.200Z,990.82
2018-01-18T04:15:03.303Z,990.72
2018-01-18T04:15:29.405Z,990.79
2018-01-18T04:15:55.509Z,990.68
2018-01-18T04:16:21.614Z,990.64
2018-01-18T04:16:47.710Z,990.68
2018-01-18T04:17:13.812Z,990.67
2018-01-18T04:17:39.938Z,990.81
2018-01-18T04:18:06.033Z,990.76
2018-01-18T04:18:32.133Z,990.61
2018-01-18T04:18:58.229Z,990.58
2018-01-18T04:19:24.341Z,990.49
2018-01-18T04:19:50.462Z,990.54
2018-01-18T04:20:16.559Z,990.56
2018-01-18T04:20:42.660Z,990.51
2018-01-18T04:21:08.774Z,990.39
2018-01-18T04:21:34.893Z,990.47
2018-01-18T04:22:01.042Z,990.43
2018-01-18T04:22:27.099Z,990.48
2018-01-18T04:22:53.203Z,990.39
2018-01-18T04:23:19.306Z,990.42
2018-01-18T04:23:45.406Z,990.35
2018-01-18T04:24:11.507Z,990.29
2018-01-18T04:24:37.611Z,990.28
2018-01-18T04:25:03.721Z,990.21
2018-01-18T04:25:29.823Z,990.21
2018-01-18T04:25:55.928Z,990.07
2018-01-18T04:26:22.027Z,990.18
2018-01-18T04:26:48.133Z,990.03
2018-01-18T04:27:14.230Z,990.08
2018-01-18T04:27:40.334Z,990.09
2018-01-18T04:28:06.434Z,990.1
2018-01-18T04:28:32.534Z,989.96
2018-01-18T04:28:58.633Z,990.09
2018-01-18T04:29:24.735Z,989.93
2018-01-18T04:29:50.835Z,989.94
2018-01-18T04:30:16.932Z,989.92
2018-01-18T04:30:43.037Z,989.94
2018-01-18T04:31:09.135Z,989.87
2018-01-18T04:31:35.237Z,989.83
2018-01-18T04:32:01.340Z,989.75
2018-01-18T04:32:27.439Z,989.67
2018-01-18T04:32:53.543Z,989.76
2018-01-18T04:33:19.641Z,989.67
2018-01-18T04:33:45.754Z,989.59
2018-01-18T04:34:11.860Z,989.61
2018-01-18T04:34:37.976Z,989.6
2018-01-18T04:35:04.081Z,989.61
2018-01-18T04:35:30.186Z,989.57
2018-01-18T04:35:56.281Z,989.43
2018-01-18T04:36:22.404Z,989.55
2018-01-18T04:36:48.520Z,989.44
2018-01-18T04:37:14.621Z,989.49
2018-01-18T04:37:40.727Z,989.41
2018-01-18T04:38:06.831Z,989.34
2018-01-18T04:38:32.930Z,989.32
2018-01-18T04:38:59.029Z,989.24
2018-01-18T04:39:25.135Z,989.18
2018-01-18T04:39:51.230Z,989.17
2018-01-18T04:40:17.334Z,989.13
2018-01-18T04:40:43.436Z,989.09
2018-01-18T04:41:09.528Z,989.09
2018-01-18T04:41:35.636Z,989.07
2018-01-18T04:42:01.733Z,989.11
2018-01-18T04:42:27.829Z,989.07
2018-01-18T04:42:53.939Z,989.1
2018-01-18T04:43:20.037Z,989.02
2018-01-18T04:43:46.144Z,989
2018-01-18T04:44:12.243Z,988.9
2018-01-18T04:44:38.346Z,988.96
2018-01-18T04:45:04.446Z,988.85
2018-01-18T04:45:30.546Z,988.93
2018-01-18T04:45:56.651Z,988.83
2018-01-18T04:46:22.770Z,988.81
2018-01-18T04:46:48.873Z,988.83
2018-01-18T04:47:14.972Z,988.78
2018-01-18T04:47:41.074Z,988.75
2018-01-18T04:48:07.177Z,988.73
2018-01-18T04:48:33.278Z,988.76
2018-01-18T04:48:59.383Z,988.71
2018-01-18T04:49:25.503Z,988.65
2018-01-18T04:49:51.599Z,988.61
2018-01-18T04:50:17.700Z,988.54
2018-01-18T04:50:43.806Z,988.49
2018-01-18T04:51:09.923Z,988.51
2018-01-18T04:51:36.016Z,988.48
2018-01-18T04:52:02.121Z,988.59
2018-01-18T04:52:28.218Z,988.49
2018-01-18T04:52:54.316Z,988.37
2018-01-18T04:53:20.421Z,988.37
2018-01-18T04:53:46.518Z,988.32
2018-01-18T04:54:12.623Z,988.43
2018-01-18T04:54:38.720Z,988.23
2018-01-18T04:55:04.823Z,988.26
2018-01-18T04:55:30.923Z,988.25
2018-01-18T04:55:57.023Z,988.23
2018-01-18T04:56:23.128Z,988.16
2018-01-18T04:56:49.225Z,988.2
2018-01-18T04:57:15.325Z,988.2
2018-01-18T04:57:41.429Z,988.15
2018-01-18T04:58:07.524Z,988.15
2018-01-18T04:58:33.630Z,988.08
2018-01-18T04:58:59.733Z,988.06
2018-01-18T04:59:25.832Z,988.01
2018-01-18T04:59:51.933Z,988.05
2018-01-18T05:00:18.041Z,988.02
2018-01-18T05:00:44.147Z,988.04
2018-01-18T05:01:10.243Z,988.01
2018-01-18T05:01:36.348Z,988.03
2018-01-18T05:02:02.442Z,988.05
2018-01-18T05:02:28.546Z,987.92
2018-01-18T05:02:54.665Z,987.86
2018-01-18T05:03:20.764Z,987.81
2018-01-18T05:03:46.870Z,987.82
2018-01-18T05:04:12.985Z,987.83
2018-01-18T05:04:39.088Z,987.75
2018-01-18T05:05:05.186Z,987.8
2018-01-18T05:05:31.286Z,987.86
2018-01-18T05:05:57.386Z,987.68
2018-01-18T05:06:23.507Z,987.61
2018-01-18T05:06:49.609Z,987.61
2018-01-18T05:07:15.715Z,987.59
2018-01-18T05:07:41.815Z,987.62
2018-01-18T05:08:07.919Z,987.59
2018-01-18T05:08:34.025Z,987.46
2018-01-18T05:09:00.117Z,987.52
2018-01-18T05:09:26.224Z,987.59
2018-01-18T05:09:52.323Z,987.52
2018-01-18T05:10:18.420Z,987.51
2018-01-18T05:10:44.523Z,987.49
2018-01-18T05:11:10.629Z,987.41
2018-01-18T05:11:36.727Z,987.42
2018-01-18T05:12:02.835Z,987.37
2018-01-18T05:12:28.931Z,987.34
2018-01-18T05:12:55.036Z,987.33
2018-01-18T05:13:21.133Z,987.35
2018-01-18T05:13:47.233Z,987.36
2018-01-18T05:14:13.335Z,987.44
2018-01-18T05:14:39.436Z,987.38
2018-01-18T05:15:05.540Z,987.25
2018-01-18T05:15:31.638Z,987.25
2018-01-18T05:15:57.743Z,987.37
2018-01-18T05:16:23.842Z,987.16
2018-01-18T05:16:49.940Z,987.08
2018-01-18T05:17:16.046Z,987.13
2018-01-18T05:17:42.147Z,987.15
2018-01-18T05:18:08.252Z,987.03
2018-01-18T05:18:34.347Z,987
2018-01-18T05:19:00.455Z,987.24
2018-01-18T05:19:26.551Z,987.05
2018-01-18T05:19:52.651Z,986.84
2018-01-18T05:20:18.754Z,986.8
2018-01-18T05:20:44.864Z,986.81
2018-01-18T05:21:10.979Z,986.75
2018-01-18T05:21:37.088Z,986.63
2018-01-18T05:22:03.183Z,986.72
2018-01-18T05:22:29.299Z,986.66
2018-01-18T05:22:55.420Z,986.83
2018-01-18T05:23:21.520Z,986.54
2018-01-18T05:23:47.622Z,986.6
2018-01-18T05:24:13.720Z,986.57
2018-01-18T05:24:39.820Z,986.53
2018-01-18T05:25:05.918Z,986.44
2018-01-18T05:25:32.022Z,986.33
2018-01-18T05:25:58.115Z,986.37
2018-01-18T05:26:24.232Z,986.35
2018-01-18T05:26:50.333Z,986.43